Flight Number: AVA1975 Duration: 9:00
Departure: Dubai Intl Airport (OMDB) at 22:00 Distance: 4117.78 Nm
Arrival: Dakar Intl (GOOY) at 07:00 Equipment: B777

Weather Information
Dubai International Airport, United Arab Emirates (OMDB) 25-15N 055-20E 5M Oct 22, 2020 - 07:00 AM EDT / 2020.10.22 1100 UTC
Wind: from the NNW (340 degrees) at 12 MPH (10 KT):0
Visibility: greater than 7 mile(s):0 Temperature: 91 F (33 C) Dew Point: 55 F (13 C) Relative Humidity: 29% Pressure (altimeter): 29.80 in. Hg (1009 hPa)
ob: OMDB 221100Z 34010KT CAVOK 33/13 Q1009 NOSIG cycle: 11
Sunrise: 02:23 Sunset: 13:42 (UTC)

Dakar / Yoff, Senegal (GOOY) 14-44N 017-30W 24M Oct 22, 2020 - 07:00 AM EDT / 2020.10.22 1100 UTC
Wind: from the NE (040 degrees) at 16 MPH (14 KT):0
Visibility: greater than 7 mile(s):0 Temperature: 89 F (32 C) Heat index: 102.9 F (39.4 C):1 Dew Point: 78 F (26 C) Relative Humidity: 70% Pressure (altimeter): 29.91 in. Hg (1013 hPa)
ob: GOOY 221100Z 04014KT CAVOK 32/26 Q1013 cycle: 11
Sunrise: 07:05 Sunset: 18:43 (UTC)

TAF:2020/10/22 12:30 TAF GOOY 221130Z 2212/2318 02012KT CAVOK= TAF GBYD 221130Z 2212/2318 30006KT 9999 SCT012

This route has never been flown.

Route map